sensor_id;sensor_type;location;lat;lon;timestamp;pressure;altitude;pressure_sealevel;temperature;humidity
24065;BME280;12258;50.940;5.330;2022-09-21T00:00:51;102212.09;;;13.09;100.00
24065;BME280;12258;50.940;5.330;2022-09-21T00:03:17;102204.22;;;13.13;100.00
24065;BME280;12258;50.940;5.330;2022-09-21T00:05:44;102205.19;;;13.07;100.00
24065;BME280;12258;50.940;5.330;2022-09-21T00:08:12;102207.09;;;13.06;100.00
24065;BME280;12258;50.940;5.330;2022-09-21T00:10:38;102202.78;;;12.99;100.00
24065;BME280;12258;50.940;5.330;2022-09-21T00:13:05;102210.50;;;12.90;100.00
24065;BME280;12258;50.940;5.330;2022-09-21T00:15:32;102190.25;;;12.91;100.00
24065;BME280;12258;50.940;5.330;2022-09-21T00:17:58;102200.97;;;12.81;100.00
24065;BME280;12258;50.940;5.330;2022-09-21T00:20:26;102198.69;;;12.90;100.00
24065;BME280;12258;50.940;5.330;2022-09-21T00:22:52;102197.16;;;12.82;100.00
24065;BME280;12258;50.940;5.330;2022-09-21T00:25:19;102193.13;;;12.85;100.00
24065;BME280;12258;50.940;5.330;2022-09-21T00:27:45;102202.75;;;12.87;100.00
24065;BME280;12258;50.940;5.330;2022-09-21T00:30:16;102205.03;;;12.90;100.00
24065;BME280;12258;50.940;5.330;2022-09-21T00:32:41;102200.97;;;12.81;100.00
24065;BME280;12258;50.940;5.330;2022-09-21T00:35:08;102211.94;;;12.81;100.00
24065;BME280;12258;50.940;5.330;2022-09-21T00:37:34;102207.75;;;12.79;100.00
24065;BME280;12258;50.940;5.330;2022-09-21T00:39:59;102208.09;;;12.71;100.00
24065;BME280;12258;50.940;5.330;2022-09-21T00:42:27;102206.69;;;12.68;100.00
24065;BME280;12258;50.940;5.330;2022-09-21T00:44:53;102218.56;;;12.62;100.00
24065;BME280;12258;50.940;5.330;2022-09-21T00:47:30;102206.19;;;12.71;100.00
24065;BME280;12258;50.940;5.330;2022-09-21T00:49:58;102210.94;;;12.64;100.00
24065;BME280;12258;50.940;5.330;2022-09-21T00:52:27;102207.50;;;12.69;100.00
24065;BME280;12258;50.940;5.330;2022-09-21T00:54:59;102217.66;;;12.68;100.00
24065;BME280;12258;50.940;5.330;2022-09-21T00:57:28;102217.50;;;12.63;100.00
24065;BME280;12258;50.940;5.330;2022-09-21T01:00:02;102215.69;;;12.57;100.00
24065;BME280;12258;50.940;5.330;2022-09-21T01:02:29;102222.84;;;12.58;100.00
24065;BME280;12258;50.940;5.330;2022-09-21T01:04:55;102210.91;;;12.53;100.00
24065;BME280;12258;50.940;5.330;2022-09-21T01:07:26;102220.47;;;12.50;100.00
24065;BME280;12258;50.940;5.330;2022-09-21T01:09:56;102216.25;;;12.48;100.00
24065;BME280;12258;50.940;5.330;2022-09-21T01:12:55;102209.50;;;12.50;100.00
24065;BME280;12258;50.940;5.330;2022-09-21T01:16:10;102212.00;;;12.52;100.00
24065;BME280;12258;50.940;5.330;2022-09-21T01:18:45;102218.06;;;12.42;100.00
24065;BME280;12258;50.940;5.330;2022-09-21T01:21:26;102218.06;;;12.42;100.00
24065;BME280;12258;50.940;5.330;2022-09-21T01:27:03;102210.59;;;12.31;100.00
24065;BME280;12258;50.940;5.330;2022-09-21T01:32:26;102206.69;;;12.27;100.00
24065;BME280;12258;50.940;5.330;2022-09-21T01:37:23;102202.09;;;12.21;100.00
24065;BME280;12258;50.940;5.330;2022-09-21T01:39:54;102205.44;;;12.23;100.00
24065;BME280;12258;50.940;5.330;2022-09-21T01:42:24;102207.41;;;12.04;100.00
24065;BME280;12258;50.940;5.330;2022-09-21T01:44:54;102199.94;;;12.11;100.00
24065;BME280;12258;50.940;5.330;2022-09-21T01:47:22;102206.25;;;12.12;100.00
24065;BME280;12258;50.940;5.330;2022-09-21T01:49:52;102199.78;;;12.06;100.00
24065;BME280;12258;50.940;5.330;2022-09-21T01:52:30;102205.72;;;12.03;100.00
24065;BME280;12258;50.940;5.330;2022-09-21T01:55:02;102197.75;;;12.02;100.00
24065;BME280;12258;50.940;5.330;2022-09-21T01:57:54;102199.13;;;12.11;100.00
24065;BME280;12258;50.940;5.330;2022-09-21T02:00:23;102201.78;;;11.99;100.00
24065;BME280;12258;50.940;5.330;2022-09-21T02:03:24;102196.56;;;12.09;100.00
24065;BME280;12258;50.940;5.330;2022-09-21T02:05:52;102201.28;;;11.91;100.00
24065;BME280;12258;50.940;5.330;2022-09-21T02:08:18;102201.66;;;11.94;100.00
24065;BME280;12258;50.940;5.330;2022-09-21T02:10:48;102200.81;;;11.94;100.00
24065;BME280;12258;50.940;5.330;2022-09-21T02:13:16;102203.16;;;11.90;100.00
24065;BME280;12258;50.940;5.330;2022-09-21T02:18:51;102208.88;;;11.89;100.00
24065;BME280;12258;50.940;5.330;2022-09-21T02:21:30;102206.84;;;11.84;100.00
24065;BME280;12258;50.940;5.330;2022-09-21T02:26:41;102206.44;;;11.81;100.00
24065;BME280;12258;50.940;5.330;2022-09-21T02:29:17;102213.44;;;11.77;100.00
24065;BME280;12258;50.940;5.330;2022-09-21T02:31:53;102208.34;;;11.80;100.00
24065;BME280;12258;50.940;5.330;2022-09-21T02:37:12;102210.13;;;11.75;100.00
24065;BME280;12258;50.940;5.330;2022-09-21T02:39:57;102207.81;;;11.72;100.00
24065;BME280;12258;50.940;5.330;2022-09-21T02:42:28;102213.53;;;11.70;100.00
24065;BME280;12258;50.940;5.330;2022-09-21T02:45:20;102205.53;;;11.69;100.00
24065;BME280;12258;50.940;5.330;2022-09-21T02:47:58;102200.94;;;11.63;100.00
24065;BME280;12258;50.940;5.330;2022-09-21T02:50:49;102202.13;;;11.73;100.00
24065;BME280;12258;50.940;5.330;2022-09-21T02:53:25;102209.59;;;11.66;100.00
24065;BME280;12258;50.940;5.330;2022-09-21T02:55:52;102200.50;;;11.48;100.00
24065;BME280;12258;50.940;5.330;2022-09-21T02:58:19;102201.56;;;11.47;100.00
24065;BME280;12258;50.940;5.330;2022-09-21T03:00:46;102196.56;;;11.44;100.00
24065;BME280;12258;50.940;5.330;2022-09-21T03:03:16;102200.72;;;11.46;100.00
24065;BME280;12258;50.940;5.330;2022-09-21T03:05:45;102201.81;;;11.45;100.00
24065;BME280;12258;50.940;5.330;2022-09-21T03:08:13;102197.44;;;11.38;100.00
24065;BME280;12258;50.940;5.330;2022-09-21T03:10:38;102196.16;;;11.40;100.00
24065;BME280;12258;50.940;5.330;2022-09-21T03:13:05;102202.91;;;11.38;100.00
24065;BME280;12258;50.940;5.330;2022-09-21T03:15:34;102205.41;;;11.39;100.00
24065;BME280;12258;50.940;5.330;2022-09-21T03:17:59;102194.13;;;11.36;100.00
24065;BME280;12258;50.940;5.330;2022-09-21T03:20:25;102198.06;;;11.40;100.00
24065;BME280;12258;50.940;5.330;2022-09-21T03:22:50;102205.50;;;11.33;100.00
24065;BME280;12258;50.940;5.330;2022-09-21T03:25:15;102208.47;;;11.31;100.00
24065;BME280;12258;50.940;5.330;2022-09-21T03:27:41;102203.84;;;11.32;100.00
24065;BME280;12258;50.940;5.330;2022-09-21T03:30:07;102202.59;;;11.28;100.00
24065;BME280;12258;50.940;5.330;2022-09-21T03:32:33;102196.53;;;11.26;100.00
24065;BME280;12258;50.940;5.330;2022-09-21T03:34:58;102204.13;;;11.24;100.00
24065;BME280;12258;50.940;5.330;2022-09-21T03:37:23;102203.91;;;11.25;100.00
24065;BME280;12258;50.940;5.330;2022-09-21T03:39:49;102205.63;;;11.20;100.00
24065;BME280;12258;50.940;5.330;2022-09-21T03:42:14;102212.34;;;11.24;100.00
24065;BME280;12258;50.940;5.330;2022-09-21T03:44:40;102213.84;;;11.20;100.00
24065;BME280;12258;50.940;5.330;2022-09-21T03:47:06;102210.50;;;11.18;100.00
24065;BME280;12258;50.940;5.330;2022-09-21T03:49:32;102212.63;;;11.16;100.00
24065;BME280;12258;50.940;5.330;2022-09-21T03:51:59;102209.13;;;11.09;100.00
24065;BME280;12258;50.940;5.330;2022-09-21T03:54:24;102211.22;;;11.07;100.00
24065;BME280;12258;50.940;5.330;2022-09-21T03:56:50;102204.94;;;11.06;100.00
24065;BME280;12258;50.940;5.330;2022-09-21T03:59:15;102215.94;;;11.00;100.00
24065;BME280;12258;50.940;5.330;2022-09-21T04:01:42;102210.91;;;10.97;100.00
24065;BME280;12258;50.940;5.330;2022-09-21T04:04:07;102207.50;;;11.01;100.00
24065;BME280;12258;50.940;5.330;2022-09-21T04:06:33;102204.56;;;11.03;100.00
24065;BME280;12258;50.940;5.330;2022-09-21T04:08:58;102210.91;;;10.97;100.00
24065;BME280;12258;50.940;5.330;2022-09-21T04:11:26;102213.69;;;10.90;100.00
24065;BME280;12258;50.940;5.330;2022-09-21T04:13:52;102208.31;;;11.02;100.00
24065;BME280;12258;50.940;5.330;2022-09-21T04:16:22;102214.25;;;10.99;100.00
24065;BME280;12258;50.940;5.330;2022-09-21T04:18:48;102217.66;;;10.94;100.00
24065;BME280;12258;50.940;5.330;2022-09-21T04:21:15;102209.22;;;10.96;100.00
24065;BME280;12258;50.940;5.330;2022-09-21T04:23:41;102222.06;;;10.95;100.00
24065;BME280;12258;50.940;5.330;2022-09-21T04:26:27;102211.84;;;11.09;100.00
24065;BME280;12258;50.940;5.330;2022-09-21T04:28:53;102217.59;;;11.01;100.00
24065;BME280;12258;50.940;5.330;2022-09-21T04:31:20;102219.94;;;10.97;100.00
24065;BME280;12258;50.940;5.330;2022-09-21T04:33:49;102223.84;;;11.08;100.00
24065;BME280;12258;50.940;5.330;2022-09-21T04:36:19;102217.16;;;11.04;100.00
24065;BME280;12258;50.940;5.330;2022-09-21T04:38:45;102221.75;;;11.10;100.00
24065;BME280;12258;50.940;5.330;2022-09-21T04:41:11;102217.53;;;11.07;100.00
24065;BME280;12258;50.940;5.330;2022-09-21T04:43:40;102220.91;;;11.09;100.00
24065;BME280;12258;50.940;5.330;2022-09-21T04:46:11;102211.34;;;11.18;100.00
24065;BME280;12258;50.940;5.330;2022-09-21T04:48:37;102221.69;;;11.16;100.00
24065;BME280;12258;50.940;5.330;2022-09-21T04:51:03;102216.13;;;11.05;100.00
24065;BME280;12258;50.940;5.330;2022-09-21T04:53:30;102219.22;;;11.08;100.00
24065;BME280;12258;50.940;5.330;2022-09-21T04:55:55;102222.09;;;11.13;100.00
24065;BME280;12258;50.940;5.330;2022-09-21T04:58:22;102224.19;;;11.18;100.00
24065;BME280;12258;50.940;5.330;2022-09-21T05:00:49;102228.03;;;11.10;100.00
24065;BME280;12258;50.940;5.330;2022-09-21T05:03:15;102223.25;;;11.06;100.00
24065;BME280;12258;50.940;5.330;2022-09-21T05:05:52;102225.91;;;11.12;100.00
24065;BME280;12258;50.940;5.330;2022-09-21T05:08:18;102231.78;;;11.16;100.00
24065;BME280;12258;50.940;5.330;2022-09-21T05:11:09;102222.94;;;11.14;100.00
24065;BME280;12258;50.940;5.330;2022-09-21T05:13:36;102224.63;;;11.15;100.00
24065;BME280;12258;50.940;5.330;2022-09-21T05:16:02;102235.84;;;11.07;100.00
24065;BME280;12258;50.940;5.330;2022-09-21T05:18:27;102228.19;;;11.15;100.00
24065;BME280;12258;50.940;5.330;2022-09-21T05:20:57;102228.44;;;11.14;100.00
24065;BME280;12258;50.940;5.330;2022-09-21T05:23:23;102230.16;;;11.08;100.00
24065;BME280;12258;50.940;5.330;2022-09-21T05:25:49;102233.91;;;11.14;100.00
24065;BME280;12258;50.940;5.330;2022-09-21T05:28:16;102237.47;;;11.14;100.00
24065;BME280;12258;50.940;5.330;2022-09-21T05:30:50;102238.09;;;11.16;100.00
24065;BME280;12258;50.940;5.330;2022-09-21T05:33:19;102239.53;;;11.19;100.00
24065;BME280;12258;50.940;5.330;2022-09-21T05:38:18;102243.94;;;11.20;100.00
24065;BME280;12258;50.940;5.330;2022-09-21T05:40:44;102252.22;;;11.31;100.00
24065;BME280;12258;50.940;5.330;2022-09-21T05:43:11;102246.81;;;11.25;100.00
24065;BME280;12258;50.940;5.330;2022-09-21T05:45:42;102250.50;;;11.37;100.00
24065;BME280;12258;50.940;5.330;2022-09-21T05:48:14;102258.56;;;11.32;100.00
24065;BME280;12258;50.940;5.330;2022-09-21T05:51:10;102249.13;;;11.46;100.00
24065;BME280;12258;50.940;5.330;2022-09-21T05:56:28;102261.72;;;11.53;100.00
24065;BME280;12258;50.940;5.330;2022-09-21T05:59:41;102264.13;;;11.61;100.00
24065;BME280;12258;50.940;5.330;2022-09-21T06:04:42;102270.84;;;11.47;100.00
24065;BME280;12258;50.940;5.330;2022-09-21T06:07:08;102272.06;;;11.27;100.00
24065;BME280;12258;50.940;5.330;2022-09-21T06:09:33;102263.91;;;11.45;100.00
24065;BME280;12258;50.940;5.330;2022-09-21T06:11:58;102270.44;;;11.44;100.00
24065;BME280;12258;50.940;5.330;2022-09-21T06:14:24;102278.03;;;11.42;100.00
24065;BME280;12258;50.940;5.330;2022-09-21T06:16:51;102269.09;;;11.28;100.00
24065;BME280;12258;50.940;5.330;2022-09-21T06:19:16;102274.25;;;11.61;100.00
24065;BME280;12258;50.940;5.330;2022-09-21T06:21:42;102270.75;;;11.78;100.00
24065;BME280;12258;50.940;5.330;2022-09-21T06:24:08;102269.44;;;11.81;100.00
24065;BME280;12258;50.940;5.330;2022-09-21T06:26:34;102270.66;;;11.85;100.00
24065;BME280;12258;50.940;5.330;2022-09-21T06:29:00;102271.09;;;11.82;100.00
24065;BME280;12258;50.940;5.330;2022-09-21T06:31:26;102270.66;;;11.85;100.00
24065;BME280;12258;50.940;5.330;2022-09-21T06:33:52;102276.88;;;11.74;100.00
24065;BME280;12258;50.940;5.330;2022-09-21T06:36:17;102282.19;;;12.05;100.00
24065;BME280;12258;50.940;5.330;2022-09-21T06:38:42;102284.22;;;12.98;100.00
24065;BME280;12258;50.940;5.330;2022-09-21T06:41:08;102286.69;;;13.29;100.00
24065;BME280;12258;50.940;5.330;2022-09-21T06:43:33;102284.41;;;13.15;100.00
24065;BME280;12258;50.940;5.330;2022-09-21T06:46:00;102292.91;;;13.60;100.00
24065;BME280;12258;50.940;5.330;2022-09-21T06:48:28;102293.69;;;13.95;100.00
24065;BME280;12258;50.940;5.330;2022-09-21T06:51:01;102287.28;;;14.29;100.00
24065;BME280;12258;50.940;5.330;2022-09-21T06:53:29;102294.69;;;14.68;100.00
24065;BME280;12258;50.940;5.330;2022-09-21T06:56:06;102285.81;;;14.94;100.00
24065;BME280;12258;50.940;5.330;2022-09-21T06:58:32;102288.41;;;15.50;100.00
24065;BME280;12258;50.940;5.330;2022-09-21T07:01:09;102292.25;;;15.49;100.00
24065;BME280;12258;50.940;5.330;2022-09-21T07:03:36;102286.81;;;15.71;100.00
24065;BME280;12258;50.940;5.330;2022-09-21T07:06:02;102298.78;;;15.81;100.00
24065;BME280;12258;50.940;5.330;2022-09-21T07:08:28;102286.25;;;15.90;100.00
24065;BME280;12258;50.940;5.330;2022-09-21T07:10:57;102284.91;;;16.14;100.00
24065;BME280;12258;50.940;5.330;2022-09-21T07:13:23;102289.72;;;16.46;100.00
24065;BME280;12258;50.940;5.330;2022-09-21T07:15:49;102289.00;;;16.82;100.00
24065;BME280;12258;50.940;5.330;2022-09-21T07:18:14;102286.56;;;17.17;100.00
24065;BME280;12258;50.940;5.330;2022-09-21T07:20:40;102288.28;;;17.23;100.00
24065;BME280;12258;50.940;5.330;2022-09-21T07:23:14;102285.63;;;17.33;100.00
24065;BME280;12258;50.940;5.330;2022-09-21T07:25:41;102285.41;;;17.81;100.00
24065;BME280;12258;50.940;5.330;2022-09-21T07:28:08;102291.31;;;18.00;100.00
24065;BME280;12258;50.940;5.330;2022-09-21T07:30:35;102294.06;;;17.95;100.00
24065;BME280;12258;50.940;5.330;2022-09-21T07:33:01;102289.41;;;18.00;100.00
24065;BME280;12258;50.940;5.330;2022-09-21T07:35:26;102298.50;;;18.57;100.00
24065;BME280;12258;50.940;5.330;2022-09-21T07:37:51;102305.16;;;18.71;100.00
24065;BME280;12258;50.940;5.330;2022-09-21T07:40:17;102296.34;;;18.90;100.00
24065;BME280;12258;50.940;5.330;2022-09-21T07:42:43;102295.50;;;18.94;100.00
24065;BME280;12258;50.940;5.330;2022-09-21T07:45:09;102297.78;;;19.47;100.00
24065;BME280;12258;50.940;5.330;2022-09-21T07:47:35;102296.34;;;19.65;100.00
24065;BME280;12258;50.940;5.330;2022-09-21T07:50:01;102296.94;;;19.57;100.00
24065;BME280;12258;50.940;5.330;2022-09-21T07:52:26;102299.34;;;19.93;100.00
24065;BME280;12258;50.940;5.330;2022-09-21T07:54:52;102301.91;;;19.55;100.00
24065;BME280;12258;50.940;5.330;2022-09-21T07:57:17;102298.22;;;20.15;100.00
24065;BME280;12258;50.940;5.330;2022-09-21T08:00:03;102301.78;;;20.15;100.00
24065;BME280;12258;50.940;5.330;2022-09-21T08:02:29;102299.56;;;20.07;100.00
24065;BME280;12258;50.940;5.330;2022-09-21T08:04:54;102301.28;;;19.98;100.00
24065;BME280;12258;50.940;5.330;2022-09-21T08:07:20;102311.16;;;20.83;100.00
24065;BME280;12258;50.940;5.330;2022-09-21T08:09:46;102304.00;;;21.15;100.00
24065;BME280;12258;50.940;5.330;2022-09-21T08:12:14;102306.25;;;21.13;100.00
24065;BME280;12258;50.940;5.330;2022-09-21T08:14:43;102313.97;;;21.84;100.00
24065;BME280;12258;50.940;5.330;2022-09-21T08:17:08;102305.69;;;21.74;100.00
24065;BME280;12258;50.940;5.330;2022-09-21T08:19:33;102305.41;;;22.27;100.00
24065;BME280;12258;50.940;5.330;2022-09-21T08:22:00;102299.47;;;22.10;100.00
24065;BME280;12258;50.940;5.330;2022-09-21T08:24:25;102303.28;;;21.96;99.79
24065;BME280;12258;50.940;5.330;2022-09-21T08:26:51;102305.63;;;21.84;100.00
24065;BME280;12258;50.940;5.330;2022-09-21T08:29:17;102304.50;;;22.74;100.00
24065;BME280;12258;50.940;5.330;2022-09-21T08:31:42;102299.22;;;20.82;100.00
24065;BME280;12258;50.940;5.330;2022-09-21T08:34:08;102307.00;;;22.57;100.00
24065;BME280;12258;50.940;5.330;2022-09-21T08:36:34;102301.19;;;22.30;100.00
24065;BME280;12258;50.940;5.330;2022-09-21T08:38:59;102301.72;;;22.32;100.00
24065;BME280;12258;50.940;5.330;2022-09-21T08:46:45;102306.47;;;23.11;95.02
24065;BME280;12258;50.940;5.330;2022-09-21T08:49:20;102298.00;;;23.34;87.30
24065;BME280;12258;50.940;5.330;2022-09-21T08:51:59;102306.97;;;23.63;89.57
24065;BME280;12258;50.940;5.330;2022-09-21T08:54:30;102298.16;;;24.16;92.31
24065;BME280;12258;50.940;5.330;2022-09-21T08:56:59;102304.47;;;24.08;85.86
24065;BME280;12258;50.940;5.330;2022-09-21T08:59:25;102305.78;;;24.37;82.37
24065;BME280;12258;50.940;5.330;2022-09-21T09:01:56;102311.78;;;24.31;82.74
24065;BME280;12258;50.940;5.330;2022-09-21T09:04:33;102315.69;;;24.57;85.21
24065;BME280;12258;50.940;5.330;2022-09-21T09:10:03;102319.81;;;25.44;80.81
24065;BME280;12258;50.940;5.330;2022-09-21T09:13:04;102321.28;;;24.84;73.41
24065;BME280;12258;50.940;5.330;2022-09-21T09:21:02;102319.44;;;26.29;75.50
24065;BME280;12258;50.940;5.330;2022-09-21T09:24:03;102323.91;;;26.38;75.56
24065;BME280;12258;50.940;5.330;2022-09-21T09:26:37;102327.13;;;26.06;74.15
24065;BME280;12258;50.940;5.330;2022-09-21T09:29:40;102323.69;;;26.66;76.75
24065;BME280;12258;50.940;5.330;2022-09-21T09:32:12;102323.53;;;26.88;66.45
24065;BME280;12258;50.940;5.330;2022-09-21T09:34:48;102315.97;;;26.97;67.04
24065;BME280;12258;50.940;5.330;2022-09-21T09:37:19;102322.91;;;26.91;65.83
24065;BME280;12258;50.940;5.330;2022-09-21T09:39:53;102314.00;;;26.80;63.30
24065;BME280;12258;50.940;5.330;2022-09-21T09:42:46;102330.81;;;27.57;65.67
24065;BME280;12258;50.940;5.330;2022-09-21T09:50:33;102314.94;;;25.50;64.73
24065;BME280;12258;50.940;5.330;2022-09-21T09:53:09;102313.88;;;27.83;67.16
24065;BME280;12258;50.940;5.330;2022-09-21T09:55:56;102320.59;;;27.52;64.26
24065;BME280;12258;50.940;5.330;2022-09-21T09:58:36;102318.91;;;27.60;61.72
24065;BME280;12258;50.940;5.330;2022-09-21T10:01:02;102313.00;;;27.02;55.00
24065;BME280;12258;50.940;5.330;2022-09-21T10:03:28;102313.00;;;27.02;59.43
24065;BME280;12258;50.940;5.330;2022-09-21T10:05:54;102318.19;;;27.89;62.56
24065;BME280;12258;50.940;5.330;2022-09-21T10:11:01;102314.78;;;27.66;53.20
24065;BME280;12258;50.940;5.330;2022-09-21T10:13:38;102309.31;;;28.53;54.71
24065;BME280;12258;50.940;5.330;2022-09-21T10:18:57;102308.44;;;29.02;54.86
24065;BME280;12258;50.940;5.330;2022-09-21T10:21:35;102299.13;;;27.48;49.10
24065;BME280;12258;50.940;5.330;2022-09-21T10:24:06;102303.59;;;28.41;54.09
24065;BME280;12258;50.940;5.330;2022-09-21T10:26:43;102297.81;;;28.38;49.28
24065;BME280;12258;50.940;5.330;2022-09-21T10:32:05;102294.84;;;29.05;53.74
24065;BME280;12258;50.940;5.330;2022-09-21T10:35:10;102282.94;;;27.45;48.13
24065;BME280;12258;50.940;5.330;2022-09-21T10:37:39;102284.16;;;27.90;52.11
24065;BME280;12258;50.940;5.330;2022-09-21T10:42:52;102284.34;;;27.77;50.06
24065;BME280;12258;50.940;5.330;2022-09-21T10:45:21;102289.09;;;28.80;50.89
24065;BME280;12258;50.940;5.330;2022-09-21T10:47:58;102288.19;;;28.10;51.38
24065;BME280;12258;50.940;5.330;2022-09-21T10:50:39;102291.09;;;28.59;47.81
24065;BME280;12258;50.940;5.330;2022-09-21T10:55:43;102284.63;;;28.30;47.17
24065;BME280;12258;50.940;5.330;2022-09-21T10:58:11;102288.41;;;27.88;49.48
24065;BME280;12258;50.940;5.330;2022-09-21T11:00:47;102284.53;;;27.63;49.94
24065;BME280;12258;50.940;5.330;2022-09-21T11:06:08;102289.56;;;26.98;50.51
24065;BME280;12258;50.940;5.330;2022-09-21T11:14:15;102287.84;;;26.54;50.44
24065;BME280;12258;50.940;5.330;2022-09-21T11:17:02;102285.31;;;26.18;50.63
24065;BME280;12258;50.940;5.330;2022-09-21T11:22:33;102275.06;;;23.37;61.48
24065;BME280;12258;50.940;5.330;2022-09-21T11:25:24;102276.72;;;24.11;60.04
24065;BME280;12258;50.940;5.330;2022-09-21T11:28:17;102274.50;;;24.49;59.25
24065;BME280;12258;50.940;5.330;2022-09-21T11:39:45;102267.63;;;24.33;63.25
24065;BME280;12258;50.940;5.330;2022-09-21T11:42:30;102264.16;;;24.63;61.67
24065;BME280;12258;50.940;5.330;2022-09-21T11:45:00;102266.50;;;24.20;63.48
24065;BME280;12258;50.940;5.330;2022-09-21T11:50:01;102256.59;;;24.14;63.24
24065;BME280;12258;50.940;5.330;2022-09-21T11:55:24;102257.38;;;24.42;63.14
24065;BME280;12258;50.940;5.330;2022-09-21T11:58:05;102259.66;;;24.13;63.69
24065;BME280;12258;50.940;5.330;2022-09-21T12:01:25;102250.53;;;23.93;62.39
24065;BME280;12258;50.940;5.330;2022-09-21T12:04:18;102247.78;;;24.07;62.63
24065;BME280;12258;50.940;5.330;2022-09-21T12:09:34;102240.91;;;23.45;61.47
24065;BME280;12258;50.940;5.330;2022-09-21T12:12:40;102240.84;;;23.77;60.05
24065;BME280;12258;50.940;5.330;2022-09-21T12:18:03;102246.59;;;23.40;66.48
24065;BME280;12258;50.940;5.330;2022-09-21T12:23:39;102226.84;;;23.37;67.37
24065;BME280;12258;50.940;5.330;2022-09-21T12:26:02;102237.25;;;23.31;68.36
24065;BME280;12258;50.940;5.330;2022-09-21T12:29:13;102235.22;;;23.37;64.58
24065;BME280;12258;50.940;5.330;2022-09-21T12:31:55;102223.44;;;23.08;59.13
24065;BME280;12258;50.940;5.330;2022-09-21T12:34:44;102236.69;;;24.29;63.12
24065;BME280;12258;50.940;5.330;2022-09-21T12:37:16;102224.94;;;24.54;62.35
24065;BME280;12258;50.940;5.330;2022-09-21T12:40:11;102224.91;;;25.34;62.72
24065;BME280;12258;50.940;5.330;2022-09-21T12:42:47;102226.16;;;25.50;64.42
24065;BME280;12258;50.940;5.330;2022-09-21T12:45:28;102221.28;;;25.34;56.65
24065;BME280;12258;50.940;5.330;2022-09-21T12:50:47;102215.63;;;25.47;56.02
24065;BME280;12258;50.940;5.330;2022-09-21T12:53:19;102214.44;;;25.40;53.03
24065;BME280;12258;50.940;5.330;2022-09-21T12:58:33;102202.03;;;25.63;53.85
24065;BME280;12258;50.940;5.330;2022-09-21T13:03:48;102195.38;;;24.75;59.22
24065;BME280;12258;50.940;5.330;2022-09-21T13:09:21;102199.16;;;24.22;58.57
24065;BME280;12258;50.940;5.330;2022-09-21T13:11:52;102197.25;;;24.31;62.59
24065;BME280;12258;50.940;5.330;2022-09-21T13:14:18;102185.72;;;24.24;60.96
24065;BME280;12258;50.940;5.330;2022-09-21T13:16:53;102195.63;;;24.30;58.71
24065;BME280;12258;50.940;5.330;2022-09-21T13:19:23;102189.91;;;24.35;58.60
24065;BME280;12258;50.940;5.330;2022-09-21T13:22:31;102196.78;;;24.51;59.47
24065;BME280;12258;50.940;5.330;2022-09-21T13:25:05;102190.69;;;24.49;58.85
24065;BME280;12258;50.940;5.330;2022-09-21T13:41:03;102178.66;;;25.06;57.65
24065;BME280;12258;50.940;5.330;2022-09-21T13:43:58;102174.53;;;25.03;57.12
24065;BME280;12258;50.940;5.330;2022-09-21T13:49:27;102177.47;;;25.29;57.55
24065;BME280;12258;50.940;5.330;2022-09-21T13:54:52;102176.28;;;24.91;55.81
24065;BME280;12258;50.940;5.330;2022-09-21T13:57:25;102168.13;;;24.10;57.85
24065;BME280;12258;50.940;5.330;2022-09-21T14:02:35;102167.28;;;25.33;57.35
24065;BME280;12258;50.940;5.330;2022-09-21T14:05:17;102163.63;;;25.24;54.11
24065;BME280;12258;50.940;5.330;2022-09-21T14:07:44;102155.84;;;23.83;48.94
24065;BME280;12258;50.940;5.330;2022-09-21T14:10:21;102152.22;;;25.90;54.32
24065;BME280;12258;50.940;5.330;2022-09-21T14:12:49;102149.91;;;25.84;50.62
24065;BME280;12258;50.940;5.330;2022-09-21T14:18:55;102144.00;;;25.94;50.63
24065;BME280;12258;50.940;5.330;2022-09-21T14:21:17;102139.72;;;24.87;51.08
24065;BME280;12258;50.940;5.330;2022-09-21T14:26:46;102129.72;;;26.04;47.98
24065;BME280;12258;50.940;5.330;2022-09-21T14:29:26;102131.34;;;26.13;50.88
24065;BME280;12258;50.940;5.330;2022-09-21T14:31:58;102132.22;;;25.27;47.29
24065;BME280;12258;50.940;5.330;2022-09-21T14:34:30;102121.47;;;26.07;48.25
24065;BME280;12258;50.940;5.330;2022-09-21T14:37:01;102117.47;;;25.44;49.19
24065;BME280;12258;50.940;5.330;2022-09-21T14:39:34;102113.56;;;25.14;50.32
24065;BME280;12258;50.940;5.330;2022-09-21T14:42:07;102109.13;;;26.17;51.01
24065;BME280;12258;50.940;5.330;2022-09-21T14:44:37;102108.81;;;25.23;49.21
24065;BME280;12258;50.940;5.330;2022-09-21T15:00:52;102096.44;;;24.63;50.23
24065;BME280;12258;50.940;5.330;2022-09-21T15:05:54;102092.56;;;23.92;54.55
24065;BME280;12258;50.940;5.330;2022-09-21T15:14:12;102095.81;;;23.72;58.84
24065;BME280;12258;50.940;5.330;2022-09-21T15:16:42;102092.59;;;23.65;57.04
24065;BME280;12258;50.940;5.330;2022-09-21T15:19:26;102086.16;;;23.78;53.92
24065;BME280;12258;50.940;5.330;2022-09-21T15:21:54;102083.44;;;23.65;58.76
24065;BME280;12258;50.940;5.330;2022-09-21T15:26:50;102083.63;;;23.41;55.25
24065;BME280;12258;50.940;5.330;2022-09-21T15:29:27;102086.00;;;23.34;56.55
24065;BME280;12258;50.940;5.330;2022-09-21T15:31:54;102080.78;;;22.87;58.80
24065;BME280;12258;50.940;5.330;2022-09-21T15:34:20;102076.25;;;22.91;55.77
24065;BME280;12258;50.940;5.330;2022-09-21T15:36:46;102086.81;;;23.21;57.79
24065;BME280;12258;50.940;5.330;2022-09-21T15:41:57;102078.97;;;23.23;58.19
24065;BME280;12258;50.940;5.330;2022-09-21T15:44:32;102075.16;;;22.74;61.88